• Join FlightAware (Why Join?)
  • Login
  • US Flag 
02:35AM EDT


 

Airport Tracker/Info


-or-


 

Live Flight TrackerFlight Track Log ✈ CPT7773 ✈ 19-Aug-2013 ✈ KCOD - KCPR

Flight Track Log - Related Links

Times and Time Zones

All times are in EDT time to prevent confusion due to time zone crossing. See the CPT7773 flight status page for this flight to view local times or setup timezone preferences in your user account.

Time Position Orientation Groundspeed Altitude Reporting Facility
EDT Latitude Longitude Course Direction KTS MPH feet Rate Location/Type
08:05PM 44.5306 -108.8872 100° East 120 138 7,600  Level Salt Lake Center
08:06PM 44.5247 -108.8428 100° East 118 136 8,400 720 Climbing Salt Lake Center
08:08PM 44.5158 -108.7983 106° East 117 135 9,200 660 Climbing Salt Lake Center
08:09PM 44.4917 -108.7628 134° Southeast 120 138 9,800 600 Climbing Salt Lake Center
08:10PM 44.4639 -108.7217 133° Southeast 121 139 10,500 480 Climbing Salt Lake Center
08:11PM 44.4394 -108.6828 131° Southeast 126 145 10,900 240 Climbing Salt Lake Center
08:12PM 44.4133 -108.6433 133° Southeast 131 151 11,100  Climbing Salt Lake Center
08:13PM 44.3842 -108.5994 133° Southeast 140 161 11,000 -60 Descending Salt Lake Center
08:14PM 44.3533 -108.5506 131° Southeast 153 176 11,000  Level Salt Lake Center
08:15PM 44.3244 -108.5042 131° Southeast 158 182 11,000  Level Salt Lake Center
08:16PM 44.2897 -108.4522 133° Southeast 156 180 11,000  Level Salt Lake Center
08:17PM 44.2611 -108.4075 132° Southeast 156 180 11,000  Level Salt Lake Center
08:18PM 44.2319 -108.3631 132° Southeast 155 178 11,000  Level Salt Lake Center
08:19PM 44.2036 -108.3167 130° Southeast 156 180 11,000  Level Salt Lake Center
08:20PM 44.1744 -108.2731 133° Southeast 156 180 11,000  Level Salt Lake Center
08:21PM 44.1458 -108.2294 132° Southeast 155 178 11,000  Level Salt Lake Center
08:22PM 44.1167 -108.1856 133° Southeast 155 178 11,100  Climbing Salt Lake Center
08:23PM 44.0803 -108.1311 133° Southeast 157 181 11,100 -60 Level Salt Lake Center
08:24PM 44.0494 -108.0842 132° Southeast 160 184 11,000 -60 Descending Salt Lake Center
08:25PM 44.0206 -108.0372 131° Southeast 161 185 11,000 -60 Level Salt Lake Center
08:26PM 43.9908 -107.9942 134° Southeast 159 183 10,900  Descending Salt Lake Center
08:27PM 43.9608 -107.9494 133° Southeast 158 182 11,000  Climbing Salt Lake Center
08:28PM 43.9336 -107.9006 128° Southeast 158 182 11,000  Level Salt Lake Center
08:29PM 43.9044 -107.8389 123° Southeast 159 183 11,000  Level Salt Lake Center
08:30PM 43.8792 -107.7886 125° Southeast 159 183 11,000 -60 Level Salt Lake Center
08:31PM 43.8536 -107.7394 126° Southeast 158 182 10,900  Descending Salt Lake Center
08:32PM 43.8286 -107.6917 126° Southeast 157 181 11,000  Climbing Salt Lake Center
08:33PM 43.8033 -107.6422 125° Southeast 157 181 10,900  Descending Salt Lake Center
08:34PM 43.7781 -107.5933 126° Southeast 157 181 11,000  Climbing Salt Lake Center
08:35PM 43.7475 -107.5344 126° Southeast 157 181 11,000  Level Salt Lake Center
08:36PM 43.7219 -107.4853 126° Southeast 157 181 11,000  Level Salt Lake Center
08:37PM 43.6969 -107.4361 125° Southeast 157 181 11,000  Level Salt Lake Center
08:38PM 43.6714 -107.3872 126° Southeast 157 181 11,000  Level Salt Lake Center
08:39PM 43.6458 -107.3358 124° Southeast 159 183 11,000  Level Salt Lake Center
08:40PM 43.6208 -107.2883 126° Southeast 157 181 11,000  Level Salt Lake Center
08:42PM 43.5961 -107.2406 126° Southeast 155 178 11,000  Level Salt Lake Center
08:43PM 43.5664 -107.1839 126° Southeast 153 176 11,000  Level Salt Lake Center
08:44PM 43.5400 -107.1347 127° Southeast 156 180 11,000  Level Salt Lake Center
08:45PM 43.5128 -107.0844 127° Southeast 160 184 11,000  Level Salt Lake Center
08:46PM 43.4869 -107.0336 125° Southeast 161 185 11,000  Level Salt Lake Center
08:47PM 43.4622 -106.9844 125° Southeast 159 183 11,000  Level Salt Lake Center
08:48PM 43.4364 -106.9342 125° Southeast 160 184 11,000  Level Salt Lake Center
08:49PM 43.3989 -106.8878 138° Southeast 164 189 11,100  Climbing Salt Lake Center
08:50PM 43.3511 -106.8558 154° Southeast 167 192 11,000 -300 Descending Salt Lake Center
08:51PM 43.3142 -106.8231 147° Southeast 167 192 10,600 -600 Descending Salt Lake Center
08:52PM 43.2683 -106.7858 149° Southeast 169 194 9,800 -540 Descending Salt Lake Center
08:53PM 43.2286 -106.7547 150° Southeast 171 197 9,600 -240 Descending Salt Lake Center
08:54PM 43.1956 -106.7233 145° Southeast 162 186 9,400 -480 Descending Salt Lake Center
08:55PM 43.1553 -106.6886 148° Southeast 155 178 8,700 -660 Descending Salt Lake Center
08:56PM 43.0989 -106.6414 149° Southeast 159 183 7,800 -480 Descending Denver Center
08:57PM 43.0611 -106.6119 150° Southeast 159 183 7,500 -300 Descending Denver Center